createdAt,value
2018-04-25T00:02:03.492Z,14.80
2018-04-25T00:04:31.825Z,14.86
2018-04-25T00:07:00.180Z,14.86
2018-04-25T00:09:28.512Z,14.87
2018-04-25T00:11:56.881Z,14.89
2018-04-25T00:14:25.221Z,14.93
2018-04-25T00:16:53.569Z,14.96
2018-04-25T00:19:21.900Z,15.00
2018-04-25T00:21:50.251Z,15.01
2018-04-25T00:24:18.612Z,15.03
2018-04-25T00:26:46.940Z,15.06
2018-04-25T00:29:15.275Z,15.03
2018-04-25T00:31:43.628Z,15.08
2018-04-25T00:34:11.976Z,15.13
2018-04-25T00:36:40.332Z,15.15
2018-04-25T00:39:08.656Z,15.22
2018-04-25T00:41:37.013Z,15.24
2018-04-25T00:44:05.349Z,15.26
2018-04-25T00:46:33.704Z,15.30
2018-04-25T00:49:02.048Z,15.29
2018-04-25T00:51:30.405Z,15.27
2018-04-25T00:53:58.740Z,15.31
2018-04-25T00:56:27.097Z,15.33
2018-04-25T00:58:55.428Z,15.35
2018-04-25T01:01:23.780Z,15.39
2018-04-25T01:03:52.117Z,15.42
2018-04-25T01:06:20.473Z,15.46
2018-04-25T01:08:48.818Z,15.51
2018-04-25T01:11:17.159Z,15.53
2018-04-25T01:13:45.489Z,15.58
2018-04-25T01:16:13.848Z,15.58
2018-04-25T01:18:42.180Z,15.60
2018-04-25T01:21:10.532Z,15.61
2018-04-25T01:23:38.868Z,15.58
2018-04-25T01:26:07.216Z,15.62
2018-04-25T01:28:40.050Z,15.60
2018-04-25T01:34:26.771Z,15.58
2018-04-25T01:37:02.013Z,15.52
2018-04-25T01:39:36.136Z,15.53
2018-04-25T01:42:16.341Z,15.58
2018-04-25T01:47:43.117Z,15.61
2018-04-25T01:50:37.169Z,15.67
2018-04-25T01:53:17.221Z,15.67
2018-04-25T01:56:03.232Z,15.62
2018-04-25T01:58:49.220Z,15.64
2018-04-25T02:01:22.890Z,15.61
2018-04-25T02:04:05.794Z,15.64
2018-04-25T02:06:34.144Z,15.60
2018-04-25T02:09:02.486Z,15.63
2018-04-25T02:11:30.841Z,15.66
2018-04-25T02:13:59.176Z,15.67
2018-04-25T02:16:27.528Z,15.68
2018-04-25T02:18:55.860Z,15.70
2018-04-25T02:21:24.212Z,15.70
2018-04-25T02:23:52.554Z,15.74
2018-04-25T02:26:20.904Z,15.76
2018-04-25T02:28:49.246Z,15.77
2018-04-25T02:31:17.625Z,15.77
2018-04-25T02:33:45.960Z,15.78
2018-04-25T02:36:14.301Z,15.79
2018-04-25T02:38:42.653Z,15.83
2018-04-25T02:41:10.981Z,15.83
2018-04-25T02:43:39.328Z,15.84
2018-04-25T02:46:07.661Z,15.86
2018-04-25T02:48:36.021Z,15.87
2018-04-25T02:51:04.349Z,15.90
2018-04-25T02:53:32.689Z,16.01
2018-04-25T02:56:01.021Z,16.04
2018-04-25T02:58:29.369Z,16.09
2018-04-25T03:00:57.703Z,16.14
2018-04-25T03:03:26.051Z,16.18
2018-04-25T03:05:54.380Z,16.24
2018-04-25T03:08:22.728Z,16.24
2018-04-25T03:10:51.093Z,16.25
2018-04-25T03:13:19.410Z,16.27
2018-04-25T03:15:47.736Z,16.29
2018-04-25T03:18:16.085Z,16.34
2018-04-25T03:20:44.413Z,16.29
2018-04-25T03:23:12.765Z,16.24
2018-04-25T03:25:41.088Z,16.22
2018-04-25T03:28:09.440Z,16.23
2018-04-25T03:30:37.766Z,16.21
2018-04-25T03:33:06.117Z,16.19
2018-04-25T03:35:34.446Z,16.19
2018-04-25T03:38:02.788Z,16.19
2018-04-25T03:40:31.121Z,16.21
2018-04-25T03:42:59.472Z,16.22
2018-04-25T03:45:27.804Z,16.28
2018-04-25T03:47:56.153Z,16.26
2018-04-25T03:50:24.484Z,16.27
2018-04-25T03:52:52.860Z,16.26
2018-04-25T03:55:21.189Z,16.28
2018-04-25T03:57:49.548Z,16.27
2018-04-25T04:00:17.872Z,16.25
2018-04-25T04:02:46.212Z,16.29
2018-04-25T04:05:14.536Z,16.30
2018-04-25T04:07:42.889Z,16.32
2018-04-25T04:10:11.213Z,16.33
2018-04-25T04:12:39.571Z,16.41
2018-04-25T04:15:07.923Z,16.43
2018-04-25T04:17:36.237Z,16.46
2018-04-25T04:20:04.569Z,16.49
2018-04-25T04:22:32.912Z,16.49
2018-04-25T04:25:01.245Z,16.47
2018-04-25T04:27:29.588Z,16.49
2018-04-25T04:29:57.912Z,16.53
2018-04-25T04:32:26.289Z,16.48
2018-04-25T04:34:54.617Z,16.45
2018-04-25T04:37:22.953Z,16.48
2018-04-25T04:39:51.305Z,16.53
2018-04-25T04:42:19.636Z,16.56
2018-04-25T04:44:47.988Z,16.62
2018-04-25T04:47:16.321Z,16.62
2018-04-25T04:49:44.673Z,16.59
2018-04-25T04:52:13.001Z,16.61
2018-04-25T04:54:41.348Z,16.67
2018-04-25T04:57:09.690Z,16.70
2018-04-25T04:59:38.079Z,16.70
2018-04-25T05:02:06.369Z,16.69
2018-04-25T05:04:34.725Z,16.69
2018-04-25T05:07:03.045Z,16.72
2018-04-25T05:09:31.398Z,16.69
2018-04-25T05:11:59.721Z,16.73
2018-04-25T05:14:28.076Z,16.73
2018-04-25T05:16:56.405Z,16.77
2018-04-25T05:19:24.757Z,16.83
2018-04-25T05:21:53.084Z,16.87
2018-04-25T05:24:21.483Z,16.88
2018-04-25T05:26:49.766Z,16.89
2018-04-25T05:29:18.104Z,16.90
2018-04-25T05:31:46.438Z,16.94
2018-04-25T05:34:14.776Z,16.97
2018-04-25T05:36:43.108Z,16.97
2018-04-25T05:39:11.447Z,16.96
2018-04-25T05:41:39.773Z,16.88
2018-04-25T05:44:08.125Z,16.90
2018-04-25T05:46:36.445Z,16.93
2018-04-25T05:49:04.797Z,16.93
2018-04-25T05:51:33.127Z,16.95
2018-04-25T05:54:01.472Z,17.08
2018-04-25T05:56:30.359Z,17.19
2018-04-25T05:58:58.709Z,17.26
2018-04-25T06:01:27.033Z,17.30
2018-04-25T06:03:55.385Z,17.25
2018-04-25T06:06:23.709Z,17.22
2018-04-25T06:08:52.056Z,17.12
2018-04-25T06:11:20.381Z,17.07
2018-04-25T06:13:48.791Z,17.10
2018-04-25T06:16:17.054Z,17.11
2018-04-25T06:18:45.389Z,17.14
2018-04-25T06:21:13.705Z,17.16
2018-04-25T06:23:42.052Z,17.14
2018-04-25T06:26:10.502Z,17.14
2018-04-25T06:28:38.918Z,17.15
2018-04-25T06:31:07.311Z,17.16
2018-04-25T06:33:36.402Z,17.16
2018-04-25T06:36:05.021Z,17.14
2018-04-25T06:38:33.543Z,17.14
2018-04-25T06:41:01.996Z,17.06
2018-04-25T06:43:30.321Z,17.10
2018-04-25T06:45:58.786Z,17.11
2018-04-25T06:48:27.426Z,17.01
2018-04-25T06:50:55.909Z,16.88
2018-04-25T06:53:24.332Z,16.50
2018-04-25T06:55:52.681Z,16.14
2018-04-25T06:58:21.268Z,15.91
2018-04-25T07:00:49.712Z,15.84
2018-04-25T07:03:18.034Z,15.76
2018-04-25T07:05:46.386Z,15.78
2018-04-25T07:08:14.800Z,15.91
2018-04-25T07:10:43.082Z,16.03
2018-04-25T07:13:11.399Z,16.05
2018-04-25T07:15:39.782Z,16.11
2018-04-25T07:18:08.089Z,16.00
2018-04-25T07:20:36.425Z,15.93
2018-04-25T07:23:04.745Z,15.95
2018-04-25T07:25:33.080Z,15.93
2018-04-25T07:28:01.403Z,15.86
2018-04-25T07:30:29.745Z,15.94
2018-04-25T07:32:58.069Z,16.04
2018-04-25T07:35:26.458Z,16.13
2018-04-25T07:37:54.738Z,16.24
2018-04-25T07:40:23.084Z,16.43
2018-04-25T07:42:51.407Z,16.68
2018-04-25T07:45:19.749Z,16.62
2018-04-25T07:47:48.075Z,16.55
2018-04-25T07:50:16.417Z,16.41
2018-04-25T07:52:44.745Z,16.50
2018-04-25T07:55:13.094Z,16.50
2018-04-25T07:57:41.423Z,16.56
2018-04-25T08:00:09.764Z,16.64
2018-04-25T08:02:38.088Z,16.60
2018-04-25T08:05:06.439Z,16.55
2018-04-25T08:07:34.760Z,16.57
2018-04-25T08:10:03.121Z,16.55
2018-04-25T08:15:45.481Z,16.60
2018-04-25T08:18:25.609Z,16.89
2018-04-25T08:21:07.459Z,17.22
2018-04-25T08:23:35.785Z,17.21
2018-04-25T08:26:04.141Z,17.22
2018-04-25T08:28:32.476Z,17.21
2018-04-25T08:31:00.816Z,17.31
2018-04-25T08:33:29.190Z,17.42
2018-04-25T08:35:57.517Z,17.61
2018-04-25T08:38:25.849Z,17.82
2018-04-25T08:40:54.188Z,17.86
2018-04-25T08:43:22.513Z,17.43
2018-04-25T08:45:50.861Z,16.60
2018-04-25T08:48:19.193Z,16.02
2018-04-25T08:50:47.545Z,15.64
2018-04-25T08:53:15.877Z,15.60
2018-04-25T08:55:44.225Z,15.52
2018-04-25T08:58:12.549Z,15.48
2018-04-25T09:00:40.900Z,15.52
2018-04-25T09:03:09.230Z,15.52
2018-04-25T09:05:37.582Z,15.68
2018-04-25T09:08:05.909Z,15.93
2018-04-25T09:10:34.265Z,15.97
2018-04-25T09:13:02.593Z,16.11
2018-04-25T09:15:31.016Z,16.21
2018-04-25T09:17:59.283Z,16.46
2018-04-25T09:20:27.633Z,16.64
2018-04-25T09:22:55.965Z,16.75
2018-04-25T09:25:24.316Z,16.70
2018-04-25T09:27:52.647Z,16.99
2018-04-25T09:30:21.000Z,17.08
2018-04-25T09:32:49.329Z,17.08
2018-04-25T09:35:17.664Z,16.97
2018-04-25T09:37:46.009Z,16.95
2018-04-25T09:40:14.336Z,17.02
2018-04-25T09:42:42.668Z,16.88
2018-04-25T09:45:11.003Z,16.86
2018-04-25T09:47:39.334Z,16.82
2018-04-25T09:50:07.657Z,16.73
2018-04-25T09:52:36.004Z,16.53
2018-04-25T09:55:04.324Z,16.40
2018-04-25T09:57:32.690Z,16.58
2018-04-25T10:00:00.990Z,16.61
2018-04-25T10:02:33.236Z,16.71
2018-04-25T10:05:01.559Z,16.56
2018-04-25T10:07:29.896Z,16.49
2018-04-25T10:09:58.216Z,16.39
2018-04-25T10:12:26.556Z,16.28
2018-04-25T10:14:54.880Z,16.31
2018-04-25T10:17:23.261Z,16.38
2018-04-25T10:19:51.542Z,16.44
2018-04-25T10:22:19.884Z,16.50
2018-04-25T10:24:48.202Z,16.51
2018-04-25T10:27:16.544Z,16.50
2018-04-25T10:29:44.870Z,16.40
2018-04-25T10:32:13.215Z,16.48
2018-04-25T10:34:41.537Z,16.43
2018-04-25T10:37:09.876Z,16.34
2018-04-25T10:39:38.200Z,16.32
2018-04-25T10:42:06.543Z,16.29
2018-04-25T10:44:34.861Z,16.12
2018-04-25T10:47:03.204Z,16.04
2018-04-25T10:49:31.524Z,15.98
2018-04-25T10:51:59.869Z,15.90
2018-04-25T10:54:28.196Z,15.84
2018-04-25T10:56:56.541Z,15.72
2018-04-25T10:59:24.870Z,15.63
2018-04-25T11:01:53.208Z,15.58
2018-04-25T11:04:21.608Z,15.60
2018-04-25T11:06:49.872Z,15.50
2018-04-25T11:09:18.192Z,15.39
2018-04-25T11:11:46.541Z,15.28
2018-04-25T11:14:14.864Z,15.20
2018-04-25T11:16:43.208Z,15.27
2018-04-25T11:19:11.537Z,15.40
2018-04-25T11:21:39.872Z,15.37
2018-04-25T11:24:08.217Z,15.24
2018-04-25T11:26:36.624Z,15.40
2018-04-25T11:29:04.893Z,15.69
2018-04-25T11:31:33.224Z,15.83
2018-04-25T11:34:01.545Z,15.95
2018-04-25T11:36:29.913Z,16.04
2018-04-25T11:38:58.236Z,16.02
2018-04-25T11:41:26.557Z,15.89
2018-04-25T11:43:54.953Z,15.79
2018-04-25T11:46:23.278Z,15.57
2018-04-25T11:48:51.621Z,15.53
2018-04-25T11:51:19.957Z,15.52
2018-04-25T11:53:48.359Z,15.51
2018-04-25T11:56:16.692Z,15.56
2018-04-25T11:58:45.054Z,15.70
2018-04-25T12:01:13.456Z,15.79
2018-04-25T12:03:41.800Z,15.86
2018-04-25T12:06:10.314Z,15.71
2018-04-25T12:08:39.317Z,15.56
2018-04-25T12:11:07.672Z,15.55
2018-04-25T12:13:36.087Z,15.42
2018-04-25T12:16:04.424Z,15.47
2018-04-25T12:18:32.773Z,15.44
2018-04-25T12:21:01.112Z,15.26
2018-04-25T12:23:29.456Z,15.22
2018-04-25T12:25:57.786Z,15.26
2018-04-25T12:28:26.132Z,15.23
2018-04-25T12:30:54.452Z,15.17
2018-04-25T12:33:22.800Z,15.05
2018-04-25T12:35:51.177Z,14.93
2018-04-25T12:38:19.477Z,14.88
2018-04-25T12:40:47.809Z,14.90
2018-04-25T12:43:16.161Z,14.93
2018-04-25T12:45:44.489Z,15.11
2018-04-25T12:48:12.832Z,15.29
2018-04-25T12:50:41.174Z,15.45
2018-04-25T12:53:09.505Z,15.39
2018-04-25T12:55:37.835Z,15.30
2018-04-25T12:58:06.182Z,15.23
2018-04-25T13:00:34.508Z,15.22
2018-04-25T13:03:02.852Z,15.35
2018-04-25T13:05:31.181Z,15.52
2018-04-25T13:07:59.520Z,15.51
2018-04-25T13:10:27.857Z,15.55
2018-04-25T13:12:56.205Z,15.57
2018-04-25T13:15:24.532Z,15.53
2018-04-25T13:17:52.876Z,15.45
2018-04-25T13:20:21.201Z,15.53
2018-04-25T13:22:49.544Z,15.60
2018-04-25T13:25:17.868Z,15.44
2018-04-25T13:27:46.220Z,15.32
2018-04-25T13:30:14.542Z,15.34
2018-04-25T13:32:42.939Z,15.34
2018-04-25T13:35:11.280Z,15.33
2018-04-25T13:37:40.613Z,15.29
2018-04-25T13:40:08.937Z,15.12
2018-04-25T13:42:37.282Z,14.85
2018-04-25T13:45:05.703Z,14.78
2018-04-25T13:47:34.075Z,14.69
2018-04-25T13:50:02.413Z,14.61
2018-04-25T13:52:30.756Z,14.54
2018-04-25T13:54:59.089Z,14.38
2018-04-25T13:57:27.408Z,14.36
2018-04-25T13:59:55.752Z,14.41
2018-04-25T14:02:24.072Z,14.53
2018-04-25T14:04:52.417Z,14.80
2018-04-25T14:07:20.736Z,15.07
2018-04-25T14:09:49.080Z,15.31
2018-04-25T14:12:17.404Z,15.40
2018-04-25T14:14:45.748Z,15.34
2018-04-25T14:17:15.029Z,15.28
2018-04-25T14:19:43.377Z,15.33
2018-04-25T14:22:11.700Z,15.44
2018-04-25T14:24:40.109Z,15.46
2018-04-25T14:27:09.356Z,15.45
2018-04-25T14:29:37.702Z,15.50
2018-04-25T14:32:06.020Z,15.57
2018-04-25T14:34:34.365Z,15.62
2018-04-25T14:37:02.698Z,15.67
2018-04-25T14:39:31.037Z,15.67
2018-04-25T14:41:59.364Z,15.63
2018-04-25T14:44:27.716Z,15.62
2018-04-25T14:46:56.032Z,15.68
2018-04-25T14:49:24.380Z,15.58
2018-04-25T14:51:52.701Z,15.36
2018-04-25T14:54:21.040Z,15.19
2018-04-25T14:56:49.373Z,15.14
2018-04-25T14:59:17.717Z,15.19
2018-04-25T15:01:46.037Z,15.20
2018-04-25T15:04:14.574Z,15.30
2018-04-25T15:06:43.805Z,15.22
2018-04-25T15:09:12.144Z,15.27
2018-04-25T15:11:40.469Z,15.25
2018-04-25T15:14:08.813Z,15.25
2018-04-25T15:16:37.137Z,15.34
2018-04-25T15:19:05.484Z,15.45
2018-04-25T15:21:34.565Z,15.54
2018-04-25T15:24:02.897Z,15.63
2018-04-25T15:26:31.217Z,15.67
2018-04-25T15:28:59.556Z,15.76
2018-04-25T15:31:27.879Z,15.95
2018-04-25T15:33:56.221Z,16.04
2018-04-25T15:36:24.547Z,16.07
2018-04-25T15:38:52.897Z,16.08
2018-04-25T15:41:21.252Z,16.02
2018-04-25T15:43:49.596Z,16.05
2018-04-25T15:46:17.953Z,16.05
2018-04-25T15:48:46.275Z,16.08
2018-04-25T15:51:14.621Z,16.01
2018-04-25T15:53:42.945Z,15.93
2018-04-25T15:56:11.288Z,15.89
2018-04-25T15:58:39.624Z,15.96
2018-04-25T16:01:08.808Z,16.02
2018-04-25T16:03:37.203Z,15.96
2018-04-25T16:06:05.484Z,15.77
2018-04-25T16:08:33.808Z,15.66
2018-04-25T16:11:02.201Z,15.66
2018-04-25T16:13:30.469Z,15.70
2018-04-25T16:15:58.812Z,15.79
2018-04-25T16:18:27.140Z,15.92
2018-04-25T16:20:55.520Z,15.90
2018-04-25T16:23:23.842Z,15.90
2018-04-25T16:25:52.184Z,15.92
2018-04-25T16:28:20.504Z,15.89
2018-04-25T16:30:48.893Z,15.87
2018-04-25T16:33:17.205Z,15.78
2018-04-25T16:35:45.557Z,15.76
2018-04-25T16:38:13.889Z,15.69
2018-04-25T16:40:43.293Z,15.61
2018-04-25T16:43:11.609Z,15.54
2018-04-25T16:45:39.948Z,15.46
2018-04-25T16:48:08.273Z,15.40
2018-04-25T16:50:36.626Z,15.41
2018-04-25T16:53:04.948Z,15.42
2018-04-25T16:55:33.298Z,15.44
2018-04-25T16:58:02.621Z,15.44
2018-04-25T17:00:30.963Z,15.51
2018-04-25T17:02:59.288Z,15.55
2018-04-25T17:05:27.628Z,15.61
2018-04-25T17:07:55.961Z,15.70
2018-04-25T17:10:24.313Z,15.71
2018-04-25T17:12:52.640Z,15.63
2018-04-25T17:15:20.984Z,15.58
2018-04-25T17:17:49.304Z,15.58
2018-04-25T17:20:18.334Z,15.58
2018-04-25T17:22:46.647Z,15.58
2018-04-25T17:25:15.004Z,15.58
2018-04-25T17:27:43.323Z,15.59
2018-04-25T17:30:11.668Z,15.54
2018-04-25T17:32:40.012Z,15.53
2018-04-25T17:35:08.359Z,15.43
2018-04-25T17:37:36.729Z,15.20
2018-04-25T17:40:05.125Z,14.42
2018-04-25T17:42:33.448Z,14.07
2018-04-25T17:45:01.800Z,13.96
2018-04-25T17:47:30.123Z,13.88
2018-04-25T17:49:58.453Z,13.80
2018-04-25T17:52:26.797Z,13.86
2018-04-25T17:54:55.240Z,14.02
2018-04-25T17:57:23.677Z,14.13
2018-04-25T17:59:52.640Z,14.09
2018-04-25T18:02:20.981Z,14.14
2018-04-25T18:04:49.305Z,14.08
2018-04-25T18:07:17.652Z,14.00
2018-04-25T18:09:45.968Z,13.98
2018-04-25T18:12:14.379Z,13.97
2018-04-25T18:14:42.653Z,14.01
2018-04-25T18:17:11.993Z,14.00
2018-04-25T18:19:40.280Z,14.03
2018-04-25T18:22:08.712Z,13.98
2018-04-25T18:24:37.105Z,13.96
2018-04-25T18:27:05.439Z,13.95
2018-04-25T18:29:33.756Z,13.96
2018-04-25T18:32:02.104Z,14.01
2018-04-25T18:34:30.433Z,14.00
2018-04-25T18:36:59.756Z,13.94
2018-04-25T18:39:28.081Z,13.87
2018-04-25T18:41:56.425Z,13.79
2018-04-25T18:44:24.757Z,13.66
2018-04-25T18:46:53.100Z,13.60
2018-04-25T18:49:21.427Z,13.48
2018-04-25T18:51:49.788Z,13.48
2018-04-25T18:54:18.133Z,13.51
2018-04-25T18:56:46.477Z,13.52
2018-04-25T18:59:14.838Z,13.53
2018-04-25T19:01:43.169Z,13.44
2018-04-25T19:04:11.493Z,13.39
2018-04-25T19:06:40.865Z,13.41
2018-04-25T19:09:09.208Z,13.42
2018-04-25T19:11:37.567Z,13.43
2018-04-25T19:14:05.896Z,13.46
2018-04-25T19:16:35.120Z,13.45
2018-04-25T19:19:03.444Z,13.37
2018-04-25T19:21:31.804Z,13.37
2018-04-25T19:24:00.152Z,13.37
2018-04-25T19:26:28.733Z,13.37
2018-04-25T19:28:57.060Z,13.37
2018-04-25T19:31:25.389Z,13.33
2018-04-25T19:33:53.732Z,13.24
2018-04-25T19:36:22.068Z,13.13
2018-04-25T19:38:50.457Z,13.11
2018-04-25T19:41:18.789Z,13.11
2018-04-25T19:43:47.204Z,13.13
2018-04-25T19:46:15.572Z,13.17
2018-04-25T19:48:43.950Z,13.13
2018-04-25T19:51:12.281Z,13.12
2018-04-25T19:53:40.749Z,13.07
2018-04-25T19:56:09.137Z,12.99
2018-04-25T19:58:37.569Z,12.87
2018-04-25T20:01:05.895Z,12.79
2018-04-25T20:03:34.237Z,12.69
2018-04-25T20:06:02.574Z,12.50
2018-04-25T20:08:31.010Z,12.31
2018-04-25T20:10:59.253Z,12.27
2018-04-25T20:13:27.596Z,12.30
2018-04-25T20:15:55.956Z,12.24
2018-04-25T20:18:24.313Z,12.22
2018-04-25T20:20:52.684Z,12.26
2018-04-25T20:23:21.055Z,12.33
2018-04-25T20:25:49.443Z,12.24
2018-04-25T20:28:17.841Z,12.21
2018-04-25T20:30:46.543Z,12.15
2018-04-25T20:33:14.885Z,12.12
2018-04-25T20:35:43.224Z,12.08
2018-04-25T20:38:11.549Z,12.05
2018-04-25T20:40:39.888Z,12.06
2018-04-25T20:43:08.208Z,12.03
2018-04-25T20:45:36.552Z,11.93
2018-04-25T20:48:04.876Z,11.83
2018-04-25T20:50:33.236Z,11.75
2018-04-25T20:53:01.556Z,11.69
2018-04-25T20:55:29.896Z,11.67
2018-04-25T20:57:58.230Z,11.57
2018-04-25T21:00:26.578Z,11.49
2018-04-25T21:02:54.910Z,11.57
2018-04-25T21:05:23.254Z,11.69
2018-04-25T21:07:51.573Z,11.81
2018-04-25T21:10:19.917Z,11.84
2018-04-25T21:12:48.261Z,11.86
2018-04-25T21:15:16.608Z,11.89
2018-04-25T21:17:44.988Z,11.92
2018-04-25T21:20:13.357Z,11.91
2018-04-25T21:22:41.684Z,11.89
2018-04-25T21:25:10.017Z,11.87
2018-04-25T21:27:38.368Z,11.82
2018-04-25T21:30:06.705Z,11.75
2018-04-25T21:32:35.235Z,11.69
2018-04-25T21:35:03.605Z,11.65
2018-04-25T21:37:31.948Z,11.63
2018-04-25T21:40:00.276Z,11.60
2018-04-25T21:42:28.624Z,11.55
2018-04-25T21:44:56.952Z,11.55
2018-04-25T21:47:25.304Z,11.54
2018-04-25T21:49:53.648Z,11.47
2018-04-25T21:52:21.996Z,11.44
2018-04-25T21:54:50.323Z,11.44
2018-04-25T21:57:18.668Z,11.36
2018-04-25T21:59:46.993Z,11.32
2018-04-25T22:02:15.340Z,11.31
2018-04-25T22:04:43.664Z,11.20
2018-04-25T22:07:12.040Z,11.05
2018-04-25T22:09:40.344Z,11.03
2018-04-25T22:12:08.701Z,11.00
2018-04-25T22:14:37.044Z,10.99
2018-04-25T22:17:05.416Z,11.04
2018-04-25T22:19:33.749Z,11.02
2018-04-25T22:22:02.081Z,11.04
2018-04-25T22:24:30.425Z,11.13
2018-04-25T22:26:58.744Z,11.22
2018-04-25T22:29:27.090Z,11.32
2018-04-25T22:31:55.412Z,11.41
2018-04-25T22:34:23.769Z,11.47
2018-04-25T22:36:52.093Z,11.41
2018-04-25T22:39:20.445Z,11.35
2018-04-25T22:41:48.769Z,11.20
2018-04-25T22:44:17.118Z,11.09
2018-04-25T22:46:45.469Z,11.14
2018-04-25T22:49:13.822Z,11.16
2018-04-25T22:51:42.156Z,11.17
2018-04-25T22:54:10.503Z,11.10
2018-04-25T22:56:38.836Z,11.03
2018-04-25T22:59:07.183Z,10.96
2018-04-25T23:01:35.509Z,10.90
2018-04-25T23:04:03.860Z,10.93
2018-04-25T23:06:32.193Z,10.91
2018-04-25T23:09:00.545Z,10.93
2018-04-25T23:11:28.885Z,10.85
2018-04-25T23:13:57.229Z,10.76
2018-04-25T23:16:25.556Z,10.78
2018-04-25T23:18:53.903Z,10.77
2018-04-25T23:21:22.232Z,10.72
2018-04-25T23:23:50.564Z,10.67
2018-04-25T23:26:18.915Z,10.67
2018-04-25T23:28:47.240Z,10.71
2018-04-25T23:31:15.597Z,10.73
2018-04-25T23:33:43.932Z,10.79
2018-04-25T23:36:12.278Z,10.80
2018-04-25T23:38:40.596Z,10.84
2018-04-25T23:41:08.945Z,10.82
2018-04-25T23:43:37.277Z,10.87
2018-04-25T23:46:05.623Z,10.95
2018-04-25T23:48:33.944Z,10.97
2018-04-25T23:51:02.294Z,10.94
2018-04-25T23:53:30.624Z,10.89
2018-04-25T23:55:58.976Z,10.91
2018-04-25T23:58:27.325Z,10.95
